Racecast

Emma Peer

Temperance Bedford (MI) · 10 · SECMI D1MONROE · Compare head to head

Athlete rating 114.2 2024 XC season
Best race 117.3 XC
Races 47
Seasons 5 2021 — 2025

RankedNation #34314·MI #3079·MI D1 #1688·SEC #158·Team #47 ?

Rating scale ?

Cross Country

2025 XC

Temperance Bedford (MI) · Grade 10

Date Meet Event Result Place Rating Difficulty PR/SR Flags
2025-09-09 Willow Metropark OFFICIAL 5000m 32:27.2 113th · 4th on team +0.048 SR CSR

2024 XC 102.8

Temperance Bedford (MI) · Grade 9

Date Meet Event Result Place Rating Difficulty PR/SR Flags
2024-10-26 Lake Erie Metro Park OFFICIAL 5000m 24:35.3 57th · 7th on team 110.9 +0.055 ★CR CSR
2024-10-05 Portage West MS 5000m 23:42.2 108th · 2nd on team 113.5 +0.038 ★PR ★CR SR CSR RSR
2024-09-28 Lake Erie Metro Park OFFICIAL 5000m 26:27.5 11th · 2nd on team 103.1 +0.055 PR CR SR CSR RSR
2024-09-24 Pioneer HS 5000m 27:36.4 63rd · 7th on team 100.2 +0.067 PR ★CR SR CSR RSR
2024-09-10 Willow Metropark OFFICIAL 5000m 28:23.4 64th · 5th on team 95.9 +0.048 PR ★CR SR CSR RSR
2024-08-23 Ford Field/EE Ice Arena(LIVONIA) OFFICIAL 5000m 29:45.5 69th · 5th on team 93.1 +0.070 PR ★CR SR CSR RSR

2023 XC 113.5

Temperance Bedford (MI) · Grade 8

Date Meet Event Result Place Rating Difficulty PR/SR Flags
2023-10-25 Milan HS OFFICIAL 3218m 16:32 12th · 1st on team 117.3 +0.041 ★CR ★R SR CSR RSR
2023-09-22 Ella Sharp Park OFFICIAL 3218m 17:10.8 100th · 8th on team 114.1 +0.055 ★CR SR CSR RSR
2023-09-20 Heritage Park (Adrian) OFFICIAL 3218m 17:33.5 48th · 9th on team 109.2 +0.046 ★CR SR CSR RSR

2022 XC 107.1

Temperance Bedford (MI) · Grade 7

Date Meet Event Result Place Rating Difficulty PR/SR Flags
2022-10-22 Hudson HS 3218m 16:22.6 96th · 11th on team 116.8 +0.029 ★PR ★CR R SR CSR RSR
2022-10-19 Saline High School 3218m 17:18.6 34th · 5th on team 110.0 +0.016 ★CR CSR
2022-10-15 Munson Park 3200m 16:26.7 87th · 14th on team 116.2 +0.034 ★PR ★CR R SR CSR RSR
2022-10-08 Monroe Township Stoneco Park 3218m 16:33.1 4th · 3rd on team 112.8 +0.006 PR ★CR R SR CSR RSR
2022-10-01 Lake Erie Metro Park OFFICIAL 3218m 17:14.1 120th · 12th on team 111.8 +0.034 ★CR R SR CSR RSR
2022-09-21 Manly W. Bennett Park 3218m 21:13.2 74th · 10th on team 97.0 +0.100 ★CR SR CSR
2022-09-17 Ottawa Park Golf Course 3200m 19:42.8 113th · 11th on team 91.2 -0.037 ★CR CSR
2022-09-10 Hedges Boyer Park 3200m 16:42.6 72nd · 1st on team 101.4 -0.089 PR ★CR SR CSR RSR

2021 XC 102.6

Temperance Bedford (MI) · Grade 6

Date Meet Event Result Place Rating Difficulty PR/SR Flags
2021-10-16 Huron Meadows Metropark OFFICIAL 3200m 18:51 62nd · 9th on team 102.4 +0.031 PR ★CR SR CSR
2021-10-09 Monroe Township Stoneco Park 3218m 17:00.4 4th · 4th on team 111.1 +0.006 PR CR R SR CSR RSR
2021-10-06 Hudson Mills Metropark - OFFICIAL 3218m 18:13.1 32nd · 10th on team 109.5 +0.062 PR ★CR R SR CSR RSR
2021-10-02 Lake Erie Metro Park OFFICIAL 3218m 18:23.9 121st · 17th on team 105.5 +0.034 PR CR R SR CSR RSR
2021-09-24 Ella Sharp Park OFFICIAL 3218m 21:37.5 192nd · 24th on team 93.0 +0.055 PR CR SR CSR
2021-09-01 Eastwood High School 3200m 19:02 79th · 12th on team 94.1 -0.040 PR ★CR R SR CSR RSR

Track & Field

2024 TF 105.1

Temperance Bedford (MI) · Grade 8

Date Meet Event Result Place Rating Difficulty PR/SR Flags
2024-05-14 SEC-MS Championship (Pinc) hj NH -0.033
2024-05-14 SEC-MS Championship (Pinc) 800m 3:02.81 17th · 3rd on team 109.3 -0.033 ★PR SR RSR
2024-05-10 SEC-MS: Monroe at Bedford hj 3' 10 -0.033
2024-05-10 SEC-MS: Monroe at Bedford 800m 3:07.36 3rd · 3rd on team 106.8 -0.033 PR SR RSR
2024-04-25 SEC MS: Saline @ Bedford hj 3' 8 -0.033
2024-04-25 SEC MS: Saline @ Bedford 800m 3:20.72 4th · 2nd on team 99.3 -0.033 PR SR RSR

2023 TF

Temperance Bedford (MI) · Grade 7

Date Meet Event Result Place Rating Difficulty PR/SR Flags
2023-05-15 SEC-MS: Lincoln & Bedford @ Monroe lj 9' 10 -0.032
2023-05-15 SEC-MS: Lincoln & Bedford @ Monroe 200m 36.66 28th · 10th on team -0.032 ★PR SR
2023-05-15 SEC-MS: Lincoln & Bedford @ Monroe 70m 12.51 44th · 23rd on team -0.032 ★PR SR
2023-05-08 SEC-MS Chelsea & Ypsi @Bedford lj 10-2.5 -0.033
2023-05-08 SEC-MS Chelsea & Ypsi @Bedford 70m 12.74 46th · 26th on team -0.033
2023-05-04 SEC-MS Bedford at Saline lj 9' 0 -0.038
2023-05-04 SEC-MS Bedford at Saline 200m 37.7 34th · 20th on team -0.038 PR SR
2023-05-04 SEC-MS Bedford at Saline 100m 18.12 64th · 27th on team -0.038
2023-04-27 SEC-MS: Bedford @ Pinckney lj 9' 4 -0.032
2023-04-27 SEC-MS: Bedford @ Pinckney 100m 17.64 32nd · 24th on team -0.032 ★PR SR
2023-04-27 SEC-MS: Bedford @ Pinckney 70m 12.54 28th · 21st on team -0.032 PR SR

2022 TF

Temperance Bedford (MI) · Grade 6

Date Meet Event Result Place Rating Difficulty PR/SR Flags
2022-05-09 SEC-MS Tecumseh @ Bedford 70m 14.24 48th · 33rd on team -0.033
2022-05-09 SEC-MS Tecumseh @ Bedford 200m 42.34 30th · 28th on team -0.033
2022-05-09 SEC-MS Tecumseh @ Bedford 100m 19.74 43rd · 27th on team -0.033
2022-04-28 SEC-MS Monroe @ Bedford 70m 13.45 19th · 17th on team -0.033 PR SR
2022-04-25 SEC MS: Lincoln @ Bedford 200m 41.8 32nd · 19th on team -0.033 PR SR
2022-04-25 SEC MS: Lincoln @ Bedford 100m 19.13 33rd · 21st on team -0.033 PR SR